Strona główna
METAR-TAF:

METAR-TAF

Lotnisko :

Port lotniczy Dallas-Fort Worth

Dallas / Fort Worth, Teksas, Stany Zjednoczone

Szerokość geograficzna: 32-53-49N, Długość geograficzna: 097-01-19W, wysokość: 183 m

Aktualna obserwacja pogody

Raport powstał 22 minut temu, godzina 13:53 UTC
Wiatr 6 kt od północ
Temperatura 5°C
Wilgotność 75%
Ciśnienie 1028 hPa
Widzialność: 16.1 km
bezchmurnie

METAR: KDFW 201353Z AUTO 35006KT 10SM CLR 05/01 A3036 RMK AO2 SLP281 T00500011

czas: 08:15 (14:15 UTC)

Prognoza

Raport powstał 2 godziny i 55 minut temu, godzina 11:20 UTC
Prognoza ważna od 20 godzina 12 UTC do 21 godzina 18 UTC
Wiatr 7 kt od północ
Widzialność: 10 km
bezchmurnie

TAF: KDFW 201120Z 2012/2118 01007KT P6SM SKC

Obserwacja i prognoza pogody dla ponad 4000 lotnisk (raport METAR i TAF).

Dostępne stacje oznaczono żółtymi i czerwonymi punktami na mapie.

Najedź kursorem aby zobaczyć nazwę stacji.

Kliknij aby zobaczyć obserwacje i prognozy pogody.

Aby zmienić mapę: kliknij na zielony przycisk z czarnym krzyżykiem, aby powiększyć; na zielony przycisk z myślnikiem, aby pomniejszyć; na zielone strzałki, aby przejść do map sąsiednich.


METAR-TAF: